sensor_id;sensor_type;location;lat;lon;timestamp;P1;durP1;ratioP1;P2;durP2;ratioP2
78344;SDS011;67620;51.134;6.548;2024-02-04T00:01:18;14.68;;;7.88;;
78344;SDS011;67620;51.134;6.548;2024-02-04T00:03:44;11.48;;;6.60;;
78344;SDS011;67620;51.134;6.548;2024-02-04T00:06:09;9.43;;;6.13;;
78344;SDS011;67620;51.134;6.548;2024-02-04T00:08:35;10.45;;;6.10;;
78344;SDS011;67620;51.134;6.548;2024-02-04T00:11:01;12.68;;;7.63;;
78344;SDS011;67620;51.134;6.548;2024-02-04T00:13:29;13.25;;;7.22;;
78344;SDS011;67620;51.134;6.548;2024-02-04T00:15:55;10.30;;;6.50;;
78344;SDS011;67620;51.134;6.548;2024-02-04T00:18:23;10.38;;;6.25;;
78344;SDS011;67620;51.134;6.548;2024-02-04T00:20:49;12.13;;;6.40;;
78344;SDS011;67620;51.134;6.548;2024-02-04T00:23:15;9.65;;;5.57;;
78344;SDS011;67620;51.134;6.548;2024-02-04T00:25:40;10.70;;;5.82;;
78344;SDS011;67620;51.134;6.548;2024-02-04T00:28:06;11.15;;;5.55;;
78344;SDS011;67620;51.134;6.548;2024-02-04T00:30:32;9.77;;;5.72;;
78344;SDS011;67620;51.134;6.548;2024-02-04T00:32:57;9.52;;;5.80;;
78344;SDS011;67620;51.134;6.548;2024-02-04T00:35:27;7.60;;;4.75;;
78344;SDS011;67620;51.134;6.548;2024-02-04T00:37:53;6.65;;;4.18;;
78344;SDS011;67620;51.134;6.548;2024-02-04T00:40:19;9.50;;;4.78;;
78344;SDS011;67620;51.134;6.548;2024-02-04T00:42:44;8.02;;;4.45;;
78344;SDS011;67620;51.134;6.548;2024-02-04T00:45:10;7.43;;;4.47;;
78344;SDS011;67620;51.134;6.548;2024-02-04T00:47:36;7.85;;;4.07;;
78344;SDS011;67620;51.134;6.548;2024-02-04T00:50:01;7.82;;;4.45;;
78344;SDS011;67620;51.134;6.548;2024-02-04T00:52:27;8.52;;;4.40;;
78344;SDS011;67620;51.134;6.548;2024-02-04T00:54:53;7.72;;;4.85;;
78344;SDS011;67620;51.134;6.548;2024-02-04T00:57:18;6.88;;;3.92;;
78344;SDS011;67620;51.134;6.548;2024-02-04T00:59:44;7.55;;;4.28;;
78344;SDS011;67620;51.134;6.548;2024-02-04T01:02:09;7.00;;;3.78;;
78344;SDS011;67620;51.134;6.548;2024-02-04T01:04:35;6.75;;;4.20;;
78344;SDS011;67620;51.134;6.548;2024-02-04T01:07:00;6.13;;;3.53;;
78344;SDS011;67620;51.134;6.548;2024-02-04T01:09:26;6.80;;;3.85;;
78344;SDS011;67620;51.134;6.548;2024-02-04T01:11:53;6.03;;;3.92;;
78344;SDS011;67620;51.134;6.548;2024-02-04T01:14:18;8.40;;;3.97;;
78344;SDS011;67620;51.134;6.548;2024-02-04T01:16:44;6.65;;;4.03;;
78344;SDS011;67620;51.134;6.548;2024-02-04T01:19:09;6.57;;;3.65;;
78344;SDS011;67620;51.134;6.548;2024-02-04T01:21:35;7.32;;;4.32;;
78344;SDS011;67620;51.134;6.548;2024-02-04T01:24:00;6.28;;;4.10;;
78344;SDS011;67620;51.134;6.548;2024-02-04T01:26:26;7.43;;;4.25;;
78344;SDS011;67620;51.134;6.548;2024-02-04T01:28:51;8.85;;;4.05;;
78344;SDS011;67620;51.134;6.548;2024-02-04T01:31:17;7.65;;;4.43;;
78344;SDS011;67620;51.134;6.548;2024-02-04T01:33:42;7.25;;;4.30;;
78344;SDS011;67620;51.134;6.548;2024-02-04T01:36:08;8.00;;;4.75;;
78344;SDS011;67620;51.134;6.548;2024-02-04T01:38:33;8.75;;;4.88;;
78344;SDS011;67620;51.134;6.548;2024-02-04T01:40:59;9.20;;;5.57;;
78344;SDS011;67620;51.134;6.548;2024-02-04T01:43:24;10.35;;;5.07;;
78344;SDS011;67620;51.134;6.548;2024-02-04T01:48:19;9.18;;;4.95;;
78344;SDS011;67620;51.134;6.548;2024-02-04T01:50:46;8.43;;;5.22;;
78344;SDS011;67620;51.134;6.548;2024-02-04T01:53:15;9.00;;;5.40;;
78344;SDS011;67620;51.134;6.548;2024-02-04T01:55:42;10.15;;;5.53;;
78344;SDS011;67620;51.134;6.548;2024-02-04T01:58:08;8.55;;;5.22;;
78344;SDS011;67620;51.134;6.548;2024-02-04T02:00:34;10.93;;;5.43;;
78344;SDS011;67620;51.134;6.548;2024-02-04T02:03:00;10.50;;;4.97;;
78344;SDS011;67620;51.134;6.548;2024-02-04T02:05:29;12.55;;;6.15;;
78344;SDS011;67620;51.134;6.548;2024-02-04T02:07:54;9.55;;;5.25;;
78344;SDS011;67620;51.134;6.548;2024-02-04T02:12:50;17.58;;;7.75;;
78344;SDS011;67620;51.134;6.548;2024-02-04T02:15:20;12.75;;;5.85;;
78344;SDS011;67620;51.134;6.548;2024-02-04T02:20:32;9.10;;;5.07;;
78344;SDS011;67620;51.134;6.548;2024-02-04T02:23:27;9.52;;;4.72;;
78344;SDS011;67620;51.134;6.548;2024-02-04T02:25:56;10.35;;;5.20;;
78344;SDS011;67620;51.134;6.548;2024-02-04T02:28:22;11.65;;;5.20;;
78344;SDS011;67620;51.134;6.548;2024-02-04T02:30:48;9.65;;;4.43;;
78344;SDS011;67620;51.134;6.548;2024-02-04T02:33:13;9.75;;;4.80;;
78344;SDS011;67620;51.134;6.548;2024-02-04T02:35:39;8.02;;;4.25;;
78344;SDS011;67620;51.134;6.548;2024-02-04T02:38:11;9.65;;;4.65;;
78344;SDS011;67620;51.134;6.548;2024-02-04T02:41:03;9.65;;;4.50;;
78344;SDS011;67620;51.134;6.548;2024-02-04T02:43:31;9.32;;;4.70;;
78344;SDS011;67620;51.134;6.548;2024-02-04T02:45:59;8.18;;;4.72;;
78344;SDS011;67620;51.134;6.548;2024-02-04T02:48:25;8.32;;;4.57;;
78344;SDS011;67620;51.134;6.548;2024-02-04T02:50:50;9.95;;;4.97;;
78344;SDS011;67620;51.134;6.548;2024-02-04T02:53:16;8.32;;;4.70;;
78344;SDS011;67620;51.134;6.548;2024-02-04T02:55:44;8.02;;;4.57;;
78344;SDS011;67620;51.134;6.548;2024-02-04T02:58:11;8.68;;;5.00;;
78344;SDS011;67620;51.134;6.548;2024-02-04T03:00:37;9.23;;;4.78;;
78344;SDS011;67620;51.134;6.548;2024-02-04T03:03:03;7.45;;;4.63;;
78344;SDS011;67620;51.134;6.548;2024-02-04T03:05:29;7.38;;;4.20;;
78344;SDS011;67620;51.134;6.548;2024-02-04T03:07:54;8.68;;;4.57;;
78344;SDS011;67620;51.134;6.548;2024-02-04T03:10:20;8.70;;;4.85;;
78344;SDS011;67620;51.134;6.548;2024-02-04T03:12:45;7.75;;;4.30;;
78344;SDS011;67620;51.134;6.548;2024-02-04T03:15:11;6.72;;;4.10;;
78344;SDS011;67620;51.134;6.548;2024-02-04T03:17:36;7.53;;;4.28;;
78344;SDS011;67620;51.134;6.548;2024-02-04T03:20:02;8.05;;;4.25;;
78344;SDS011;67620;51.134;6.548;2024-02-04T03:22:27;8.77;;;4.28;;
78344;SDS011;67620;51.134;6.548;2024-02-04T03:24:53;8.60;;;4.30;;
78344;SDS011;67620;51.134;6.548;2024-02-04T03:27:18;9.52;;;4.97;;
78344;SDS011;67620;51.134;6.548;2024-02-04T03:29:45;7.07;;;4.18;;
78344;SDS011;67620;51.134;6.548;2024-02-04T03:32:10;7.68;;;4.43;;
78344;SDS011;67620;51.134;6.548;2024-02-04T03:34:36;9.60;;;5.20;;
78344;SDS011;67620;51.134;6.548;2024-02-04T03:37:02;9.98;;;4.97;;
78344;SDS011;67620;51.134;6.548;2024-02-04T03:39:27;11.38;;;5.28;;
78344;SDS011;67620;51.134;6.548;2024-02-04T03:41:53;10.02;;;5.13;;
78344;SDS011;67620;51.134;6.548;2024-02-04T03:44:18;8.88;;;5.32;;
78344;SDS011;67620;51.134;6.548;2024-02-04T03:46:47;9.30;;;5.45;;
78344;SDS011;67620;51.134;6.548;2024-02-04T03:49:13;10.10;;;5.45;;
78344;SDS011;67620;51.134;6.548;2024-02-04T03:51:39;10.20;;;5.00;;
78344;SDS011;67620;51.134;6.548;2024-02-04T03:54:05;10.02;;;5.38;;
78344;SDS011;67620;51.134;6.548;2024-02-04T03:56:30;9.63;;;5.63;;
78344;SDS011;67620;51.134;6.548;2024-02-04T03:58:56;8.85;;;4.97;;
78344;SDS011;67620;51.134;6.548;2024-02-04T04:01:21;12.57;;;5.60;;
78344;SDS011;67620;51.134;6.548;2024-02-04T04:03:47;10.07;;;5.20;;
78344;SDS011;67620;51.134;6.548;2024-02-04T04:06:12;9.23;;;5.70;;
78344;SDS011;67620;51.134;6.548;2024-02-04T04:08:38;9.45;;;5.43;;
78344;SDS011;67620;51.134;6.548;2024-02-04T04:11:03;8.65;;;4.57;;
78344;SDS011;67620;51.134;6.548;2024-02-04T04:13:29;8.07;;;4.82;;
78344;SDS011;67620;51.134;6.548;2024-02-04T04:15:55;9.48;;;4.43;;
78344;SDS011;67620;51.134;6.548;2024-02-04T04:18:20;8.48;;;4.72;;
78344;SDS011;67620;51.134;6.548;2024-02-04T04:20:46;7.30;;;4.18;;
78344;SDS011;67620;51.134;6.548;2024-02-04T04:23:14;7.53;;;4.45;;
78344;SDS011;67620;51.134;6.548;2024-02-04T04:25:40;7.22;;;4.03;;
78344;SDS011;67620;51.134;6.548;2024-02-04T04:28:05;7.50;;;4.55;;
78344;SDS011;67620;51.134;6.548;2024-02-04T04:30:31;8.55;;;4.40;;
78344;SDS011;67620;51.134;6.548;2024-02-04T04:32:56;10.75;;;5.10;;
78344;SDS011;67620;51.134;6.548;2024-02-04T04:35:23;11.18;;;5.22;;
78344;SDS011;67620;51.134;6.548;2024-02-04T04:37:49;10.23;;;5.03;;
78344;SDS011;67620;51.134;6.548;2024-02-04T04:40:14;10.38;;;4.63;;
78344;SDS011;67620;51.134;6.548;2024-02-04T04:42:40;10.45;;;5.55;;
78344;SDS011;67620;51.134;6.548;2024-02-04T04:45:06;14.20;;;6.00;;
78344;SDS011;67620;51.134;6.548;2024-02-04T04:47:33;11.55;;;5.88;;
78344;SDS011;67620;51.134;6.548;2024-02-04T04:49:59;12.15;;;6.57;;
78344;SDS011;67620;51.134;6.548;2024-02-04T04:52:24;12.45;;;6.35;;
78344;SDS011;67620;51.134;6.548;2024-02-04T04:54:50;10.35;;;5.63;;
78344;SDS011;67620;51.134;6.548;2024-02-04T04:57:15;14.05;;;6.90;;
78344;SDS011;67620;51.134;6.548;2024-02-04T04:59:41;12.10;;;6.57;;
78344;SDS011;67620;51.134;6.548;2024-02-04T05:02:08;15.05;;;7.20;;
78344;SDS011;67620;51.134;6.548;2024-02-04T05:04:33;14.82;;;6.35;;
78344;SDS011;67620;51.134;6.548;2024-02-04T05:06:59;14.07;;;7.22;;
78344;SDS011;67620;51.134;6.548;2024-02-04T05:09:24;15.38;;;6.95;;
78344;SDS011;67620;51.134;6.548;2024-02-04T05:11:50;13.68;;;6.82;;
78344;SDS011;67620;51.134;6.548;2024-02-04T05:14:15;12.40;;;6.90;;
78344;SDS011;67620;51.134;6.548;2024-02-04T05:16:41;15.32;;;6.47;;
78344;SDS011;67620;51.134;6.548;2024-02-04T05:19:09;15.85;;;6.53;;
78344;SDS011;67620;51.134;6.548;2024-02-04T05:21:37;14.55;;;6.68;;
78344;SDS011;67620;51.134;6.548;2024-02-04T05:24:04;18.92;;;7.63;;
78344;SDS011;67620;51.134;6.548;2024-02-04T05:26:30;14.75;;;7.70;;
78344;SDS011;67620;51.134;6.548;2024-02-04T05:28:55;14.65;;;6.65;;
78344;SDS011;67620;51.134;6.548;2024-02-04T05:31:21;16.50;;;8.13;;
78344;SDS011;67620;51.134;6.548;2024-02-04T05:33:46;15.95;;;7.43;;
78344;SDS011;67620;51.134;6.548;2024-02-04T05:36:12;14.15;;;6.45;;
78344;SDS011;67620;51.134;6.548;2024-02-04T05:38:37;12.43;;;6.15;;
78344;SDS011;67620;51.134;6.548;2024-02-04T05:41:03;14.70;;;7.72;;
78344;SDS011;67620;51.134;6.548;2024-02-04T05:43:28;14.98;;;7.20;;
78344;SDS011;67620;51.134;6.548;2024-02-04T05:45:54;14.70;;;7.78;;
78344;SDS011;67620;51.134;6.548;2024-02-04T05:48:20;16.23;;;8.40;;
78344;SDS011;67620;51.134;6.548;2024-02-04T05:50:45;15.07;;;8.55;;
78344;SDS011;67620;51.134;6.548;2024-02-04T05:53:11;18.33;;;9.07;;
78344;SDS011;67620;51.134;6.548;2024-02-04T05:55:36;19.13;;;9.40;;
78344;SDS011;67620;51.134;6.548;2024-02-04T05:58:02;17.30;;;8.75;;
78344;SDS011;67620;51.134;6.548;2024-02-04T06:02:53;17.77;;;8.52;;
78344;SDS011;67620;51.134;6.548;2024-02-04T06:05:19;15.35;;;7.82;;
78344;SDS011;67620;51.134;6.548;2024-02-04T06:07:44;15.07;;;7.32;;
78344;SDS011;67620;51.134;6.548;2024-02-04T06:10:10;13.35;;;7.00;;
78344;SDS011;67620;51.134;6.548;2024-02-04T06:12:36;15.57;;;8.23;;
78344;SDS011;67620;51.134;6.548;2024-02-04T06:15:02;12.73;;;6.47;;
78344;SDS011;67620;51.134;6.548;2024-02-04T06:17:29;9.93;;;5.88;;
78344;SDS011;67620;51.134;6.548;2024-02-04T06:19:54;12.13;;;5.85;;
78344;SDS011;67620;51.134;6.548;2024-02-04T06:22:21;14.40;;;7.40;;
78344;SDS011;67620;51.134;6.548;2024-02-04T06:24:47;11.93;;;6.57;;
78344;SDS011;67620;51.134;6.548;2024-02-04T06:27:13;14.45;;;6.35;;
78344;SDS011;67620;51.134;6.548;2024-02-04T06:29:39;10.40;;;6.15;;
78344;SDS011;67620;51.134;6.548;2024-02-04T06:32:04;11.57;;;6.03;;
78344;SDS011;67620;51.134;6.548;2024-02-04T06:36:56;10.05;;;5.07;;
78344;SDS011;67620;51.134;6.548;2024-02-04T06:39:21;9.98;;;5.00;;
78344;SDS011;67620;51.134;6.548;2024-02-04T06:41:47;9.88;;;4.22;;
78344;SDS011;67620;51.134;6.548;2024-02-04T06:44:12;8.43;;;3.90;;
78344;SDS011;67620;51.134;6.548;2024-02-04T06:46:38;8.57;;;4.22;;
78344;SDS011;67620;51.134;6.548;2024-02-04T06:49:03;8.90;;;4.40;;
78344;SDS011;67620;51.134;6.548;2024-02-04T06:51:29;9.80;;;4.38;;
78344;SDS011;67620;51.134;6.548;2024-02-04T06:53:54;8.90;;;3.90;;
78344;SDS011;67620;51.134;6.548;2024-02-04T06:56:20;8.02;;;4.10;;
78344;SDS011;67620;51.134;6.548;2024-02-04T06:58:46;5.82;;;2.92;;
78344;SDS011;67620;51.134;6.548;2024-02-04T07:01:11;5.53;;;3.30;;
78344;SDS011;67620;51.134;6.548;2024-02-04T07:03:37;5.43;;;3.08;;
78344;SDS011;67620;51.134;6.548;2024-02-04T07:06:03;6.68;;;3.55;;
78344;SDS011;67620;51.134;6.548;2024-02-04T07:08:29;4.25;;;2.30;;
78344;SDS011;67620;51.134;6.548;2024-02-04T07:10:54;5.03;;;2.72;;
78344;SDS011;67620;51.134;6.548;2024-02-04T07:13:20;3.95;;;2.50;;
78344;SDS011;67620;51.134;6.548;2024-02-04T07:15:46;4.90;;;2.88;;
78344;SDS011;67620;51.134;6.548;2024-02-04T07:18:11;5.75;;;3.05;;
78344;SDS011;67620;51.134;6.548;2024-02-04T07:20:37;6.50;;;3.28;;
78344;SDS011;67620;51.134;6.548;2024-02-04T07:23:03;6.07;;;2.88;;
78344;SDS011;67620;51.134;6.548;2024-02-04T07:25:29;6.63;;;3.20;;
78344;SDS011;67620;51.134;6.548;2024-02-04T07:27:55;6.80;;;3.33;;
78344;SDS011;67620;51.134;6.548;2024-02-04T07:30:21;5.28;;;2.83;;
78344;SDS011;67620;51.134;6.548;2024-02-04T07:32:47;5.28;;;2.80;;
78344;SDS011;67620;51.134;6.548;2024-02-04T07:35:12;4.93;;;2.67;;
78344;SDS011;67620;51.134;6.548;2024-02-04T07:37:38;4.97;;;2.70;;
78344;SDS011;67620;51.134;6.548;2024-02-04T07:40:03;4.30;;;2.25;;
78344;SDS011;67620;51.134;6.548;2024-02-04T07:42:32;4.60;;;2.05;;
78344;SDS011;67620;51.134;6.548;2024-02-04T07:44:58;5.63;;;2.22;;
78344;SDS011;67620;51.134;6.548;2024-02-04T07:47:23;4.97;;;2.60;;
78344;SDS011;67620;51.134;6.548;2024-02-04T07:49:49;3.25;;;1.95;;
78344;SDS011;67620;51.134;6.548;2024-02-04T07:52:15;4.18;;;2.20;;
78344;SDS011;67620;51.134;6.548;2024-02-04T07:54:41;5.18;;;2.30;;
78344;SDS011;67620;51.134;6.548;2024-02-04T07:57:08;6.03;;;2.80;;
78344;SDS011;67620;51.134;6.548;2024-02-04T07:59:34;4.93;;;2.97;;
78344;SDS011;67620;51.134;6.548;2024-02-04T08:04:26;4.82;;;2.67;;
78344;SDS011;67620;51.134;6.548;2024-02-04T08:06:51;4.82;;;2.88;;
78344;SDS011;67620;51.134;6.548;2024-02-04T08:11:43;5.75;;;3.17;;
78344;SDS011;67620;51.134;6.548;2024-02-04T08:14:08;5.70;;;3.05;;
78344;SDS011;67620;51.134;6.548;2024-02-04T08:16:34;5.82;;;3.40;;
78344;SDS011;67620;51.134;6.548;2024-02-04T08:18:59;5.25;;;2.78;;
78344;SDS011;67620;51.134;6.548;2024-02-04T08:21:25;5.43;;;3.40;;
78344;SDS011;67620;51.134;6.548;2024-02-04T08:23:51;5.70;;;2.97;;
78344;SDS011;67620;51.134;6.548;2024-02-04T08:26:16;6.38;;;3.00;;
78344;SDS011;67620;51.134;6.548;2024-02-04T08:28:42;6.15;;;3.08;;
78344;SDS011;67620;51.134;6.548;2024-02-04T08:31:08;5.25;;;3.15;;
78344;SDS011;67620;51.134;6.548;2024-02-04T08:33:33;6.68;;;3.53;;
78344;SDS011;67620;51.134;6.548;2024-02-04T08:35:59;5.97;;;3.20;;
78344;SDS011;67620;51.134;6.548;2024-02-04T08:38:24;4.80;;;2.40;;
78344;SDS011;67620;51.134;6.548;2024-02-04T08:40:50;6.35;;;2.85;;
78344;SDS011;67620;51.134;6.548;2024-02-04T08:43:15;6.65;;;3.40;;
78344;SDS011;67620;51.134;6.548;2024-02-04T08:45:41;5.07;;;3.33;;
78344;SDS011;67620;51.134;6.548;2024-02-04T08:48:07;5.47;;;2.80;;
78344;SDS011;67620;51.134;6.548;2024-02-04T08:50:32;4.78;;;2.97;;
78344;SDS011;67620;51.134;6.548;2024-02-04T08:52:58;5.35;;;3.05;;
78344;SDS011;67620;51.134;6.548;2024-02-04T08:55:23;6.03;;;2.97;;
78344;SDS011;67620;51.134;6.548;2024-02-04T08:57:49;6.15;;;3.15;;
78344;SDS011;67620;51.134;6.548;2024-02-04T09:00:15;4.65;;;2.67;;
78344;SDS011;67620;51.134;6.548;2024-02-04T09:02:41;7.00;;;3.22;;
78344;SDS011;67620;51.134;6.548;2024-02-04T09:05:07;5.72;;;3.20;;
78344;SDS011;67620;51.134;6.548;2024-02-04T09:07:33;7.78;;;4.20;;
78344;SDS011;67620;51.134;6.548;2024-02-04T09:09:58;5.38;;;3.08;;
78344;SDS011;67620;51.134;6.548;2024-02-04T09:12:24;6.97;;;3.97;;
78344;SDS011;67620;51.134;6.548;2024-02-04T09:14:49;5.38;;;3.30;;
78344;SDS011;67620;51.134;6.548;2024-02-04T09:17:15;9.23;;;3.45;;
78344;SDS011;67620;51.134;6.548;2024-02-04T09:19:40;12.40;;;4.82;;
78344;SDS011;67620;51.134;6.548;2024-02-04T09:22:06;20.05;;;7.78;;
78344;SDS011;67620;51.134;6.548;2024-02-04T09:24:31;12.63;;;4.13;;
78344;SDS011;67620;51.134;6.548;2024-02-04T09:26:57;6.97;;;3.70;;
78344;SDS011;67620;51.134;6.548;2024-02-04T09:29:22;6.45;;;3.40;;
78344;SDS011;67620;51.134;6.548;2024-02-04T09:31:48;5.57;;;3.35;;
78344;SDS011;67620;51.134;6.548;2024-02-04T09:34:17;7.60;;;3.35;;
78344;SDS011;67620;51.134;6.548;2024-02-04T09:36:43;6.10;;;2.80;;
78344;SDS011;67620;51.134;6.548;2024-02-04T09:39:09;5.93;;;3.15;;
78344;SDS011;67620;51.134;6.548;2024-02-04T09:41:35;5.75;;;2.80;;
78344;SDS011;67620;51.134;6.548;2024-02-04T09:44:01;6.50;;;3.03;;
78344;SDS011;67620;51.134;6.548;2024-02-04T09:46:28;6.78;;;3.40;;
78344;SDS011;67620;51.134;6.548;2024-02-04T09:48:54;8.07;;;3.15;;
78344;SDS011;67620;51.134;6.548;2024-02-04T09:53:46;9.80;;;3.85;;
78344;SDS011;67620;51.134;6.548;2024-02-04T09:56:16;6.20;;;3.60;;
78344;SDS011;67620;51.134;6.548;2024-02-04T09:58:42;6.63;;;3.17;;
78344;SDS011;67620;51.134;6.548;2024-02-04T10:01:08;8.32;;;3.78;;
78344;SDS011;67620;51.134;6.548;2024-02-04T10:03:36;10.52;;;4.50;;
78344;SDS011;67620;51.134;6.548;2024-02-04T10:06:02;6.97;;;3.67;;
78344;SDS011;67620;51.134;6.548;2024-02-04T10:08:27;8.35;;;4.72;;
78344;SDS011;67620;51.134;6.548;2024-02-04T10:10:53;8.68;;;4.22;;
78344;SDS011;67620;51.134;6.548;2024-02-04T10:13:22;12.60;;;6.97;;
78344;SDS011;67620;51.134;6.548;2024-02-04T10:15:50;12.13;;;5.85;;
78344;SDS011;67620;51.134;6.548;2024-02-04T10:18:17;10.95;;;4.53;;
78344;SDS011;67620;51.134;6.548;2024-02-04T10:20:43;11.80;;;6.03;;
78344;SDS011;67620;51.134;6.548;2024-02-04T10:23:08;9.00;;;5.20;;
78344;SDS011;67620;51.134;6.548;2024-02-04T10:25:34;8.65;;;4.55;;
78344;SDS011;67620;51.134;6.548;2024-02-04T10:28:00;10.38;;;5.40;;
78344;SDS011;67620;51.134;6.548;2024-02-04T10:30:26;8.57;;;5.18;;
78344;SDS011;67620;51.134;6.548;2024-02-04T10:32:51;10.90;;;4.60;;
78344;SDS011;67620;51.134;6.548;2024-02-04T10:35:20;10.70;;;5.45;;
78344;SDS011;67620;51.134;6.548;2024-02-04T10:37:48;10.15;;;4.78;;
78344;SDS011;67620;51.134;6.548;2024-02-04T10:40:14;11.25;;;5.20;;
78344;SDS011;67620;51.134;6.548;2024-02-04T10:42:39;9.65;;;4.80;;
78344;SDS011;67620;51.134;6.548;2024-02-04T10:45:08;10.90;;;4.88;;
78344;SDS011;67620;51.134;6.548;2024-02-04T10:47:38;8.55;;;4.63;;
78344;SDS011;67620;51.134;6.548;2024-02-04T10:50:04;10.10;;;4.68;;
78344;SDS011;67620;51.134;6.548;2024-02-04T10:52:33;10.20;;;4.38;;
78344;SDS011;67620;51.134;6.548;2024-02-04T10:55:07;10.50;;;4.43;;
78344;SDS011;67620;51.134;6.548;2024-02-04T10:57:37;9.65;;;5.30;;
78344;SDS011;67620;51.134;6.548;2024-02-04T11:00:04;9.10;;;4.28;;
78344;SDS011;67620;51.134;6.548;2024-02-04T11:02:36;7.53;;;3.47;;
78344;SDS011;67620;51.134;6.548;2024-02-04T11:05:03;10.05;;;4.20;;
78344;SDS011;67620;51.134;6.548;2024-02-04T11:07:33;9.20;;;4.47;;
78344;SDS011;67620;51.134;6.548;2024-02-04T11:09:59;8.88;;;4.82;;
78344;SDS011;67620;51.134;6.548;2024-02-04T11:12:26;9.25;;;4.28;;
78344;SDS011;67620;51.134;6.548;2024-02-04T11:14:54;9.45;;;4.57;;
78344;SDS011;67620;51.134;6.548;2024-02-04T11:22:56;6.80;;;3.88;;
78344;SDS011;67620;51.134;6.548;2024-02-04T11:25:53;6.55;;;4.05;;
78344;SDS011;67620;51.134;6.548;2024-02-04T11:28:21;5.63;;;3.33;;
78344;SDS011;67620;51.134;6.548;2024-02-04T11:30:47;6.57;;;3.45;;
78344;SDS011;67620;51.134;6.548;2024-02-04T11:33:17;6.97;;;3.65;;
78344;SDS011;67620;51.134;6.548;2024-02-04T11:35:44;9.38;;;3.42;;
78344;SDS011;67620;51.134;6.548;2024-02-04T11:38:10;7.30;;;4.00;;
78344;SDS011;67620;51.134;6.548;2024-02-04T11:40:39;8.80;;;4.25;;
78344;SDS011;67620;51.134;6.548;2024-02-04T11:43:07;11.38;;;4.05;;
78344;SDS011;67620;51.134;6.548;2024-02-04T11:45:39;9.70;;;3.80;;
78344;SDS011;67620;51.134;6.548;2024-02-04T11:48:11;7.97;;;3.67;;
78344;SDS011;67620;51.134;6.548;2024-02-04T11:50:38;6.60;;;4.20;;
78344;SDS011;67620;51.134;6.548;2024-02-04T11:53:05;8.98;;;4.00;;
78344;SDS011;67620;51.134;6.548;2024-02-04T11:55:35;8.93;;;4.65;;
78344;SDS011;67620;51.134;6.548;2024-02-04T11:58:02;9.40;;;4.03;;
78344;SDS011;67620;51.134;6.548;2024-02-04T12:00:31;7.75;;;4.25;;
78344;SDS011;67620;51.134;6.548;2024-02-04T12:03:04;10.02;;;4.78;;
78344;SDS011;67620;51.134;6.548;2024-02-04T12:05:33;8.18;;;4.22;;
78344;SDS011;67620;51.134;6.548;2024-02-04T12:08:02;7.75;;;4.40;;
78344;SDS011;67620;51.134;6.548;2024-02-04T12:10:30;6.30;;;3.70;;
78344;SDS011;67620;51.134;6.548;2024-02-04T12:12:58;7.32;;;3.00;;
78344;SDS011;67620;51.134;6.548;2024-02-04T12:15:25;8.20;;;3.60;;
78344;SDS011;67620;51.134;6.548;2024-02-04T12:17:50;8.43;;;4.55;;
78344;SDS011;67620;51.134;6.548;2024-02-04T12:20:16;6.85;;;3.90;;
78344;SDS011;67620;51.134;6.548;2024-02-04T12:22:42;6.45;;;3.40;;
78344;SDS011;67620;51.134;6.548;2024-02-04T12:25:08;5.88;;;3.33;;
78344;SDS011;67620;51.134;6.548;2024-02-04T12:27:34;9.38;;;5.30;;
78344;SDS011;67620;51.134;6.548;2024-02-04T12:29:59;12.32;;;5.68;;
78344;SDS011;67620;51.134;6.548;2024-02-04T12:32:25;9.77;;;4.47;;
78344;SDS011;67620;51.134;6.548;2024-02-04T12:34:51;12.02;;;6.53;;
78344;SDS011;67620;51.134;6.548;2024-02-04T12:37:19;8.73;;;4.80;;
78344;SDS011;67620;51.134;6.548;2024-02-04T12:39:45;11.43;;;6.10;;
78344;SDS011;67620;51.134;6.548;2024-02-04T12:42:14;13.93;;;6.35;;
78344;SDS011;67620;51.134;6.548;2024-02-04T12:44:43;12.52;;;6.47;;
78344;SDS011;67620;51.134;6.548;2024-02-04T12:47:09;11.98;;;6.28;;
78344;SDS011;67620;51.134;6.548;2024-02-04T12:49:35;7.78;;;4.53;;
78344;SDS011;67620;51.134;6.548;2024-02-04T12:52:04;6.28;;;4.22;;
78344;SDS011;67620;51.134;6.548;2024-02-04T12:54:30;11.07;;;7.30;;
78344;SDS011;67620;51.134;6.548;2024-02-04T12:56:56;12.52;;;5.72;;
78344;SDS011;67620;51.134;6.548;2024-02-04T12:59:31;12.30;;;5.88;;
78344;SDS011;67620;51.134;6.548;2024-02-04T13:02:01;9.13;;;5.18;;
78344;SDS011;67620;51.134;6.548;2024-02-04T13:04:36;13.98;;;7.95;;
78344;SDS011;67620;51.134;6.548;2024-02-04T13:07:06;10.73;;;5.10;;
78344;SDS011;67620;51.134;6.548;2024-02-04T13:09:32;10.98;;;5.82;;
78344;SDS011;67620;51.134;6.548;2024-02-04T13:12:07;5.63;;;4.50;;
78344;SDS011;67620;51.134;6.548;2024-02-04T13:14:34;10.75;;;4.60;;
78344;SDS011;67620;51.134;6.548;2024-02-04T13:17:06;11.18;;;4.63;;
78344;SDS011;67620;51.134;6.548;2024-02-04T13:19:38;6.07;;;4.35;;
78344;SDS011;67620;51.134;6.548;2024-02-04T13:22:04;6.50;;;4.03;;
78344;SDS011;67620;51.134;6.548;2024-02-04T13:24:39;7.28;;;3.88;;
78344;SDS011;67620;51.134;6.548;2024-02-04T13:27:04;7.45;;;4.28;;
78344;SDS011;67620;51.134;6.548;2024-02-04T13:29:32;7.80;;;4.40;;
78344;SDS011;67620;51.134;6.548;2024-02-04T13:31:59;6.40;;;4.72;;
78344;SDS011;67620;51.134;6.548;2024-02-04T13:34:24;7.40;;;3.90;;
78344;SDS011;67620;51.134;6.548;2024-02-04T13:36:50;10.10;;;4.38;;
78344;SDS011;67620;51.134;6.548;2024-02-04T13:39:16;5.38;;;3.38;;
78344;SDS011;67620;51.134;6.548;2024-02-04T13:41:42;7.82;;;3.70;;
78344;SDS011;67620;51.134;6.548;2024-02-04T13:44:09;6.47;;;3.53;;
78344;SDS011;67620;51.134;6.548;2024-02-04T13:46:35;6.40;;;3.17;;
78344;SDS011;67620;51.134;6.548;2024-02-04T13:49:00;7.13;;;3.60;;
78344;SDS011;67620;51.134;6.548;2024-02-04T13:51:27;7.00;;;2.97;;
78344;SDS011;67620;51.134;6.548;2024-02-04T13:53:53;3.30;;;2.70;;
78344;SDS011;67620;51.134;6.548;2024-02-04T13:56:18;5.30;;;2.55;;
78344;SDS011;67620;51.134;6.548;2024-02-04T13:58:45;4.78;;;2.85;;
78344;SDS011;67620;51.134;6.548;2024-02-04T14:01:10;5.80;;;2.80;;
78344;SDS011;67620;51.134;6.548;2024-02-04T14:03:38;5.15;;;2.45;;
78344;SDS011;67620;51.134;6.548;2024-02-04T14:06:03;5.57;;;2.83;;
78344;SDS011;67620;51.134;6.548;2024-02-04T14:08:29;4.75;;;2.78;;
78344;SDS011;67620;51.134;6.548;2024-02-04T14:10:55;7.25;;;2.55;;
78344;SDS011;67620;51.134;6.548;2024-02-04T14:13:20;5.95;;;2.80;;
78344;SDS011;67620;51.134;6.548;2024-02-04T14:15:46;3.03;;;2.13;;
78344;SDS011;67620;51.134;6.548;2024-02-04T14:18:11;4.63;;;2.80;;
78344;SDS011;67620;51.134;6.548;2024-02-04T14:20:37;3.63;;;2.67;;
78344;SDS011;67620;51.134;6.548;2024-02-04T14:25:29;12.73;;;5.38;;
78344;SDS011;67620;51.134;6.548;2024-02-04T14:27:54;9.30;;;4.45;;
78344;SDS011;67620;51.134;6.548;2024-02-04T14:30:20;12.95;;;5.95;;
78344;SDS011;67620;51.134;6.548;2024-02-04T14:32:45;12.25;;;6.10;;
78344;SDS011;67620;51.134;6.548;2024-02-04T14:35:11;8.43;;;4.60;;
78344;SDS011;67620;51.134;6.548;2024-02-04T14:37:36;12.10;;;6.03;;
78344;SDS011;67620;51.134;6.548;2024-02-04T14:40:04;5.35;;;2.90;;
78344;SDS011;67620;51.134;6.548;2024-02-04T14:42:31;4.03;;;2.22;;
78344;SDS011;67620;51.134;6.548;2024-02-04T14:44:57;3.80;;;2.17;;
78344;SDS011;67620;51.134;6.548;2024-02-04T14:47:25;3.13;;;2.30;;
78344;SDS011;67620;51.134;6.548;2024-02-04T14:49:52;3.15;;;2.20;;
78344;SDS011;67620;51.134;6.548;2024-02-04T14:52:17;3.92;;;2.50;;
78344;SDS011;67620;51.134;6.548;2024-02-04T14:54:43;3.72;;;2.25;;
78344;SDS011;67620;51.134;6.548;2024-02-04T14:57:09;4.65;;;1.92;;
78344;SDS011;67620;51.134;6.548;2024-02-04T14:59:34;3.25;;;2.42;;
78344;SDS011;67620;51.134;6.548;2024-02-04T15:02:03;2.80;;;1.95;;
78344;SDS011;67620;51.134;6.548;2024-02-04T15:04:30;4.68;;;2.60;;
78344;SDS011;67620;51.134;6.548;2024-02-04T15:06:57;3.30;;;2.22;;